Terminal Aerodrome Forecast
Issued by NWS

Home | Current Version | Previous Version | Text Only | Print | Product List | Glossary On
Versions: 1 2 3 4 5 6 7 8 9 10 11 12
794
FTUS45 KVEF 262320
TAFEED
TAF
KEED 262320Z 2700/2724 VRB05KT P6SM SCT080
     FM270100 21008KT P6SM FEW080 SCT250
     FM270500 24010KT P6SM BKN250
     FM272000 21013G20KT P6SM VCSH BKN050=

USA.gov is the U.S. government's official web portal to all federal, state and local government web resources and services.